Time;durP1;ratioP1;P1;durP2;ratioP2;P2;SDS_P1;SDS_P2;PMS_P1;PMS_P2;Temp;Humidity;BMP_temperature;BMP_pressure;BME280_temperature;BME280_humidity;BME280_pressure;Samples;Min_cycle;Max_cycle;Signal;HPM_P1;HPM_P2
2020/12/02 00:03:56;;;;;;;98.6;62.9;;;;;;;-6.06;84.34766;99442.77;;;;
2020/12/02 00:13:53;;;;;;;96.6;61.6;;;;;;;-5.86;84.83301;99443.84;;;;
2020/12/02 00:23:50;;;;;;;99.6;66.5;;;;;;;-5.49;85.4375;99440.27;;;;
2020/12/02 00:33:47;;;;;;;82.6;54.5;;;;;;;-5.27;86.70801;99450.63;;;;
2020/12/02 00:43:44;;;;;;;92.1;50.6;;;;;;;-5.03;87.97168;99459.98;;;;
2020/12/02 00:53:41;;;;;;;64.4;40.8;;;;;;;-4.89;89.44336;99459.13;;;;
2020/12/02 01:03:38;;;;;;;78.9;42;;;;;;;-4.9;89.99219;99451.44;;;;
2020/12/02 01:13:36;;;;;;;67.8;42;;;;;;;-4.89;89.86621;99448.61;;;;
2020/12/02 01:23:33;;;;;;;55;34.6;;;;;;;-4.74;88.8252;99459.89;;;;
2020/12/02 01:33:30;;;;;;;54.8;41.5;;;;;;;-4.67;88.44727;99452.06;;;;
2020/12/02 01:43:27;;;;;;;59.4;38.2;;;;;;;-4.67;87.25586;99450.25;;;;
2020/12/02 01:53:24;;;;;;;55.9;36.8;;;;;;;-4.95;87.41406;99449.36;;;;
2020/12/02 02:03:21;;;;;;;39.9;28.2;;;;;;;-4.84;87.20996;99459.39;;;;
2020/12/02 02:13:33;;;;;;;43;34.9;;;;;;;-4.92;87.16113;99448.98;;;;
2020/12/02 02:23:16;;;;;;;53.6;29.3;;;;;;;-5.01;87.0957;99449.3;;;;
2020/12/02 02:33:13;;;;;;;60.5;43.7;;;;;;;-5.41;88.73633;99456.72;;;;
2020/12/02 02:43:12;;;;;;;54.1;38.3;;;;;;;-5.43;88.35156;99457.91;;;;
2020/12/02 02:53:09;;;;;;;58.9;38.6;;;;;;;-5.57;89.41895;99456.94;;;;
2020/12/02 03:03:04;;;;;;;57.6;38.5;;;;;;;-5.43;88.83008;99463.98;;;;
2020/12/02 03:13:01;;;;;;;62.3;38.5;;;;;;;-5.31;88.61816;99454.62;;;;
2020/12/02 03:22:58;;;;;;;49.7;32.7;;;;;;;-5.07;87.96191;99460.56;;;;
2020/12/02 03:32:56;;;;;;;64.5;38.4;;;;;;;-4.92;86.94238;99458.68;;;;
2020/12/02 03:42:53;;;;;;;58.3;36.4;;;;;;;-4.99;87.11133;99463.05;;;;
2020/12/02 03:52:50;;;;;;;71.1;45;;;;;;;-5.22;88.71094;99468.47;;;;
2020/12/02 04:02:47;;;;;;;72;48.8;;;;;;;-5.19;89.20703;99474.17;;;;
2020/12/02 04:12:45;;;;;;;75.5;48.8;;;;;;;-5.09;89.08496;99468.61;;;;
2020/12/02 04:22:41;;;;;;;85.7;43.5;;;;;;;-5.05;88.72461;99474.31;;;;
2020/12/02 04:32:38;;;;;;;79.4;49.7;;;;;;;-5.09;88.4043;99466.81;;;;
2020/12/02 04:42:35;;;;;;;58.3;41.3;;;;;;;-5.02;88.15723;99476.57;;;;
2020/12/02 04:52:33;;;;;;;72.1;46.6;;;;;;;-5.1;88.07813;99478.31;;;;
2020/12/02 05:02:30;;;;;;;56;37.1;;;;;;;-5.02;87.30176;99487.08;;;;
2020/12/02 05:12:27;;;;;;;79;46.8;;;;;;;-5.28;87.05273;99485.8;;;;
2020/12/02 05:22:24;;;;;;;60.8;43.6;;;;;;;-5.38;86.92188;99497.59;;;;
2020/12/02 05:32:21;;;;;;;56.7;38.2;;;;;;;-5.49;87.19238;99479.66;;;;
2020/12/02 05:42:28;;;;;;;63.9;38.1;;;;;;;-5.62;86.87402;99485.54;;;;
2020/12/02 05:52:20;;;;;;;73.2;42.1;;;;;;;-5.69;86.96973;99488.08;;;;
2020/12/02 06:02:13;;;;;;;64.5;40.5;;;;;;;-5.79;87.67285;99497.22;;;;
2020/12/02 06:12:15;;;;;;;50.5;34.6;;;;;;;-5.65;87.04199;99501.66;;;;
2020/12/02 06:22:07;;;;;;;59.7;41.5;;;;;;;-5.63;87.28418;99502.31;;;;
2020/12/02 06:32:05;;;;;;;60.1;39.5;;;;;;;-5.74;87.1084;99500.13;;;;
2020/12/02 06:42:08;;;;;;;49.3;31.1;;;;;;;-5.86;86.74902;99496.34;;;;
2020/12/02 06:51:58;;;;;;;57.5;32.2;;;;;;;-5.79;87.51074;99497.22;;;;
2020/12/02 07:01:55;;;;;;;55.2;36.1;;;;;;;-5.81;87.30078;99509.72;;;;
2020/12/02 07:11:52;;;;;;;65.7;36.3;;;;;;;-6;87.64941;99512.91;;;;
2020/12/02 07:21:49;;;;;;;56.5;34.6;;;;;;;-5.87;87.39648;99499.98;;;;
2020/12/02 07:31:46;;;;;;;36.9;28.1;;;;;;;-5.65;86.8584;99506.91;;;;
2020/12/02 07:41:44;;;;;;;45.1;27.7;;;;;;;-5.52;86.375;99508.92;;;;
2020/12/02 07:51:46;;;;;;;46.9;29.8;;;;;;;-5.34;85.49219;99486.52;;;;
2020/12/02 08:01:51;;;;;;;58.1;34.6;;;;;;;-5.5;86.19434;99488.53;;;;
2020/12/02 08:11:36;;;;;;;49.5;33.5;;;;;;;-5.57;86.9502;99485.82;;;;
2020/12/02 08:21:32;;;;;;;47.3;29.8;;;;;;;-5.22;85.25391;99486.87;;;;
2020/12/02 08:31:30;;;;;;;50.2;32.7;;;;;;;-5.31;84.42383;99487.98;;;;
2020/12/02 08:41:27;;;;;;;57.3;35.6;;;;;;;-5.39;85.62207;99477.56;;;;
2020/12/02 08:51:24;;;;;;;44.1;32.7;;;;;;;-5.13;84.68945;99473.43;;;;
2020/12/02 09:01:21;;;;;;;42.4;28.6;;;;;;;-5.15;83.71875;99470.19;;;;
2020/12/02 09:11:18;;;;;;;57.1;35.7;;;;;;;-5.14;83.19922;99469.16;;;;
2020/12/02 09:21:15;;;;;;;55.4;35.4;;;;;;;-5.23;83.56152;99465.03;;;;
2020/12/02 09:31:13;;;;;;;56.1;34.3;;;;;;;-4.98;83.15332;99443.66;;;;
2020/12/02 09:41:10;;;;;;;51.4;35.5;;;;;;;-4.74;82.64844;99446.73;;;;
2020/12/02 09:51:07;;;;;;;56.2;37.8;;;;;;;-5.04;81.98145;99397.94;;;;
2020/12/02 10:01:04;;;;;;;75.3;47.1;;;;;;;-5.01;82.49512;99420.39;;;;
2020/12/02 10:11:02;;;;;;;54.8;34.7;;;;;;;-5.07;84.22266;99401.72;;;;
2020/12/02 10:30:56;;;;;;;45.7;33.6;;;;;;;-4.6;83.24023;99384.55;;;;
2020/12/02 10:40:53;;;;;;;53.4;35.1;;;;;;;-5.12;84.74316;99387.53;;;;
2020/12/02 10:50:51;;;;;;;42.7;32.2;;;;;;;-4.77;83.84668;99388.46;;;;
2020/12/02 11:00:48;;;;;;;56.2;38;;;;;;;-4.2;82.68848;99370.66;;;;
2020/12/02 11:10:45;;;;;;;43.9;25.8;;;;;;;-4.33;82.12891;99365.31;;;;
2020/12/02 11:20:44;;;;;;;35.1;29.1;;;;;;;-4.52;82.57031;99370.45;;;;
2020/12/02 11:30:40;;;;;;;47.2;28;;;;;;;-4.6;82.54395;99363.52;;;;
2020/12/02 11:40:37;;;;;;;43.6;30.4;;;;;;;-4.62;83.37793;99358.44;;;;
2020/12/02 11:50:34;;;;;;;34.1;22.3;;;;;;;-4.49;83.54395;99349.84;;;;
2020/12/02 12:00:32;;;;;;;40.4;27.7;;;;;;;-4.33;83.10742;99328.48;;;;
2020/12/02 12:10:29;;;;;;;44.2;26.3;;;;;;;-4.42;83.67676;99313.05;;;;
2020/12/02 12:20:26;;;;;;;37.3;27.4;;;;;;;-4.27;83.2832;99295.34;;;;
2020/12/02 12:30:24;;;;;;;35.1;21.2;;;;;;;-4.08;82.74512;99274.37;;;;
2020/12/02 12:40:21;;;;;;;45.7;27.1;;;;;;;-4.55;84.15234;99276.98;;;;
2020/12/02 12:50:18;;;;;;;38.3;30.3;;;;;;;-4.44;84.26074;99263.25;;;;
2020/12/02 13:00:15;;;;;;;29.8;23.2;;;;;;;-4.18;83.70313;99247.61;;;;
2020/12/02 13:10:13;;;;;;;34.4;23.3;;;;;;;-4.57;84.1377;99221.92;;;;
2020/12/02 13:20:10;;;;;;;39.7;28.8;;;;;;;-4.2;83.25391;99260.13;;;;
2020/12/02 13:30:15;;;;;;;39.7;25.8;;;;;;;-4.43;84.22949;99249.11;;;;
2020/12/02 13:40:05;;;;;;;37.9;27.4;;;;;;;-4.61;84.81348;99240.91;;;;
2020/12/02 13:50:13;;;;;;;37.6;27.8;;;;;;;-4.6;84.19629;99224.95;;;;
2020/12/02 13:59:59;;;;;;;41.2;27.4;;;;;;;-4.75;84.50195;99223.44;;;;
2020/12/02 14:09:56;;;;;;;38;25.7;;;;;;;-4.81;84.51367;99224.22;;;;
2020/12/02 14:19:53;;;;;;;47.2;28.6;;;;;;;-4.86;85.16504;99237.14;;;;
2020/12/02 14:29:50;;;;;;;40.6;28.1;;;;;;;-5.04;85.71387;99206.09;;;;
2020/12/02 14:39:47;;;;;;;38.5;27.1;;;;;;;-4.92;85.73828;99195.84;;;;
2020/12/02 14:49:45;;;;;;;46.2;30.2;;;;;;;-4.73;84.79004;99197.78;;;;
2020/12/02 15:00:02;;;;;;;35.7;23.7;;;;;;;-4.64;84.54688;99194.78;;;;
2020/12/02 15:09:39;;;;;;;30.4;23.1;;;;;;;-4.86;84.33984;99205.59;;;;
2020/12/02 15:19:36;;;;;;;37.1;24.8;;;;;;;-4.95;85.05762;99196.23;;;;
2020/12/02 15:29:33;;;;;;;33.1;20.6;;;;;;;-4.86;84.89355;99179.31;;;;
2020/12/02 15:49:28;;;;;;;49.5;29.2;;;;;;;-5.01;85.41602;99153.14;;;;
2020/12/02 15:59:31;;;;;;;41.7;30.6;;;;;;;-5.14;85.96582;99167;;;;
2020/12/02 16:09:22;;;;;;;35.5;26.9;;;;;;;-5.16;85.95117;99161.14;;;;
2020/12/02 16:19:20;;;;;;;29.8;24;;;;;;;-5.23;86.24023;99144.52;;;;
2020/12/02 16:29:17;;;;;;;44.1;26.9;;;;;;;-5.21;86.14746;99145.16;;;;
2020/12/02 16:39:14;;;;;;;45.6;26.6;;;;;;;-5.02;86.07617;99134.93;;;;
2020/12/02 16:49:11;;;;;;;43.4;29;;;;;;;-5.01;85.88086;99136.56;;;;
2020/12/02 16:59:08;;;;;;;41;26.3;;;;;;;-5.26;86.60254;99137.03;;;;
2020/12/02 17:09:05;;;;;;;41.6;31.9;;;;;;;-5.41;86.92773;99128.43;;;;
2020/12/02 17:19:03;;;;;;;42.1;26.6;;;;;;;-5.32;86.56836;99124.67;;;;
2020/12/02 17:29:00;;;;;;;33.5;22.9;;;;;;;-5.36;86.87402;99118.17;;;;
2020/12/02 17:38:57;;;;;;;49.9;28.1;;;;;;;-5.26;86.65527;99128.33;;;;
2020/12/02 17:48:54;;;;;;;58.4;32.8;;;;;;;-5.2;86.06152;99112.6;;;;
2020/12/02 17:58:51;;;;;;;41.8;29.6;;;;;;;-5.21;86.42773;99112.81;;;;
2020/12/02 18:08:49;;;;;;;33.8;20.6;;;;;;;-5.06;85.63477;99110.86;;;;
2020/12/02 18:18:46;;;;;;;28;22.8;;;;;;;-5.21;86.12598;99105.75;;;;
2020/12/02 18:28:43;;;;;;;63.3;41.1;;;;;;;-5.04;85.75781;99085.21;;;;
2020/12/02 18:38:40;;;;;;;47.1;26.7;;;;;;;-5.1;85.75781;99073.64;;;;
2020/12/02 18:48:39;;;;;;;37.3;28;;;;;;;-5.21;84.92285;99066.34;;;;
2020/12/02 18:58:36;;;;;;;48.7;30.8;;;;;;;-5.07;84.32031;99068;;;;
2020/12/02 19:08:32;;;;;;;40.7;29.5;;;;;;;-5.23;83.50684;99055.2;;;;
2020/12/02 19:18:40;;;;;;;49.3;36.5;;;;;;;-5.5;84.62305;99034.25;;;;
2020/12/02 19:28:47;;;;;;;45.4;31.1;;;;;;;-5.69;83.7959;99028.68;;;;
2020/12/02 19:38:36;;;;;;;35;24.2;;;;;;;-5.42;84.16406;99027.03;;;;
2020/12/02 19:48:21;;;;;;;36.4;24.2;;;;;;;-5.59;83.8252;99017.86;;;;
2020/12/02 19:58:17;;;;;;;46.1;29.6;;;;;;;-5.24;82.66797;99002.88;;;;
2020/12/02 20:08:14;;;;;;;43.4;29;;;;;;;-5.51;84.0791;99001.92;;;;
2020/12/02 20:18:11;;;;;;;47.3;31.1;;;;;;;-5.33;83.87598;98985.64;;;;
2020/12/02 20:28:08;;;;;;;43.2;28.9;;;;;;;-5.39;83.96289;98984.63;;;;
2020/12/02 20:38:06;;;;;;;39.3;29.6;;;;;;;-5.41;84.01172;98991.87;;;;
2020/12/02 20:48:03;;;;;;;44.6;25.5;;;;;;;-5.31;83.74023;98976.55;;;;
2020/12/02 20:58:00;;;;;;;47.9;28.9;;;;;;;-5.13;82.95313;98987.34;;;;
2020/12/02 21:07:57;;;;;;;45.3;27.5;;;;;;;-5.14;83.00195;98958.66;;;;
2020/12/02 21:17:54;;;;;;;45.7;26.8;;;;;;;-5.19;83.14746;98948.73;;;;
2020/12/02 21:27:52;;;;;;;51.7;32.3;;;;;;;-5.34;83.20215;98947.25;;;;
2020/12/02 21:37:49;;;;;;;45.1;30.8;;;;;;;-5.33;83.97363;98914.73;;;;
2020/12/02 21:47:46;;;;;;;49.6;34;;;;;;;-5.54;84.68066;98943.73;;;;
2020/12/02 21:57:44;;;;;;;52.6;34.5;;;;;;;-5.5;84.10254;98937.09;;;;
2020/12/02 22:07:40;;;;;;;53.4;31.8;;;;;;;-5.28;83.59375;98934.16;;;;
2020/12/02 22:17:38;;;;;;;62.7;32.9;;;;;;;-5.42;84.45703;98958.76;;;;
2020/12/02 22:27:34;;;;;;;48.8;28.3;;;;;;;-5.22;83.53027;98946.5;;;;
2020/12/02 22:37:43;;;;;;;44.6;26;;;;;;;-5.29;84.09082;98927.28;;;;
2020/12/02 22:47:42;;;;;;;50.5;29.2;;;;;;;-5.2;83.36035;98933.97;;;;
2020/12/02 22:57:29;;;;;;;40.6;28.2;;;;;;;-5.31;82.90527;98916.14;;;;
2020/12/02 23:07:29;;;;;;;55.6;34;;;;;;;-5.66;83.11914;98899.66;;;;
2020/12/02 23:17:20;;;;;;;46.5;31.3;;;;;;;-5.38;82.67285;98917.16;;;;
2020/12/02 23:27:17;;;;;;;51.3;32;;;;;;;-5.59;82.80566;98904.97;;;;
2020/12/02 23:37:14;;;;;;;42.8;29.3;;;;;;;-5.43;81.75098;98906.42;;;;
2020/12/02 23:47:11;;;;;;;43;27.3;;;;;;;-5.41;82.08203;98907.84;;;;
2020/12/02 23:57:08;;;;;;;49;27.7;;;;;;;-5.6;83.16211;98884.97;;;;
